createdAt,value
2017-10-10T00:03:04.174Z,11.00
2017-10-10T00:06:18.280Z,9.88
2017-10-10T00:09:30.683Z,13.10
2017-10-10T00:12:42.930Z,13.05
2017-10-10T00:15:53.832Z,13.45
2017-10-10T00:19:05.715Z,12.68
2017-10-10T00:22:16.572Z,10.98
2017-10-10T00:25:27.784Z,14.23
2017-10-10T00:28:42.873Z,9.35
2017-10-10T00:31:53.712Z,12.85
2017-10-10T00:35:04.789Z,15.50
2017-10-10T00:38:16.251Z,12.30
2017-10-10T00:41:27.562Z,14.70
2017-10-10T00:44:39.648Z,13.95
2017-10-10T00:47:50.410Z,12.77
2017-10-10T00:51:00.818Z,16.55
2017-10-10T00:54:13.278Z,15.48
2017-10-10T00:57:25.142Z,13.32
2017-10-10T01:00:37.117Z,11.95
2017-10-10T01:03:48.129Z,14.23
2017-10-10T01:07:02.357Z,14.13
2017-10-10T01:10:14.425Z,12.82
2017-10-10T01:13:27.828Z,12.00
2017-10-10T01:16:41.338Z,15.88
2017-10-10T01:19:52.810Z,15.98
2017-10-10T01:23:03.998Z,11.77
2017-10-10T01:26:18.032Z,15.00
2017-10-10T01:29:36.241Z,13.85
2017-10-10T01:32:50.977Z,11.32
2017-10-10T01:36:00.867Z,13.52
2017-10-10T01:39:10.684Z,13.20
2017-10-10T01:42:21.786Z,12.40
2017-10-10T01:45:31.858Z,15.30
2017-10-10T01:48:43.425Z,11.70
2017-10-10T01:51:56.127Z,12.80
2017-10-10T01:55:06.549Z,11.98
2017-10-10T01:58:17.146Z,14.38
2017-10-10T02:01:28.397Z,11.43
2017-10-10T02:04:38.396Z,12.45
2017-10-10T02:07:48.468Z,13.62
2017-10-10T02:10:59.681Z,12.98
2017-10-10T02:14:10.260Z,13.73
2017-10-10T02:17:20.871Z,13.85
2017-10-10T02:20:30.848Z,14.05
2017-10-10T02:23:40.856Z,14.70
2017-10-10T02:26:50.976Z,13.88
2017-10-10T02:30:00.923Z,12.73
2017-10-10T02:33:10.876Z,15.02
2017-10-10T02:36:22.326Z,11.48
2017-10-10T02:39:32.976Z,9.95
2017-10-10T02:42:43.870Z,11.38
2017-10-10T02:45:54.364Z,11.85
2017-10-10T02:49:05.758Z,8.95
2017-10-10T02:52:17.259Z,9.98
2017-10-10T02:55:28.047Z,13.75
2017-10-10T02:58:38.100Z,12.82
2017-10-10T03:01:49.147Z,12.82
2017-10-10T03:05:00.246Z,14.15
2017-10-10T03:08:11.632Z,9.13
2017-10-10T03:11:22.236Z,12.27
2017-10-10T03:14:32.759Z,12.93
2017-10-10T03:17:44.222Z,10.98
2017-10-10T03:20:55.020Z,14.07
2017-10-10T03:24:05.235Z,12.20
2017-10-10T03:27:17.162Z,12.25
2017-10-10T03:30:27.745Z,10.00
2017-10-10T03:33:37.667Z,13.30
2017-10-10T03:36:47.667Z,12.90
2017-10-10T03:39:57.774Z,12.15
2017-10-10T03:43:07.822Z,12.73
2017-10-10T03:46:17.754Z,8.35
2017-10-10T03:49:27.995Z,12.35
2017-10-10T03:52:37.863Z,12.68
2017-10-10T03:55:48.041Z,11.95
2017-10-10T03:58:58.258Z,11.05
2017-10-10T04:02:09.352Z,11.65
2017-10-10T04:05:19.871Z,9.93
2017-10-10T04:08:29.870Z,11.40
2017-10-10T04:11:40.699Z,8.88
2017-10-10T04:14:51.231Z,10.55
2017-10-10T04:18:01.457Z,11.75
2017-10-10T04:21:11.750Z,9.80
2017-10-10T04:24:21.888Z,10.23
2017-10-10T04:27:33.409Z,9.05
2017-10-10T04:30:44.185Z,8.73
2017-10-10T04:33:54.132Z,11.23
2017-10-10T04:37:04.820Z,7.68
2017-10-10T04:40:15.008Z,10.23
2017-10-10T04:43:25.141Z,10.25
2017-10-10T04:46:36.577Z,11.27
2017-10-10T04:49:46.782Z,11.18
2017-10-10T04:52:57.587Z,9.00
2017-10-10T04:56:07.708Z,9.13
2017-10-10T04:59:18.390Z,10.35
2017-10-10T05:02:31.071Z,11.93
2017-10-10T05:05:41.839Z,11.27
2017-10-10T05:08:52.935Z,9.75
2017-10-10T05:12:02.834Z,9.18
2017-10-10T05:15:12.807Z,11.32
2017-10-10T05:18:24.076Z,12.93
2017-10-10T05:21:34.170Z,9.32
2017-10-10T05:24:44.265Z,8.82
2017-10-10T05:27:54.948Z,10.48
2017-10-10T05:31:05.277Z,7.87
2017-10-10T05:34:15.373Z,9.82
2017-10-10T05:37:25.465Z,9.85
2017-10-10T05:40:35.702Z,9.43
2017-10-10T05:43:45.771Z,12.77
2017-10-10T05:46:56.486Z,13.10
2017-10-10T05:50:06.609Z,11.15
2017-10-10T05:53:16.680Z,10.20
2017-10-10T05:56:26.695Z,10.88
2017-10-10T05:59:37.430Z,13.48
2017-10-10T06:02:47.470Z,11.70
2017-10-10T06:05:57.351Z,11.73
2017-10-10T06:09:07.341Z,12.85
2017-10-10T06:12:17.474Z,12.88
2017-10-10T06:15:28.817Z,13.35
2017-10-10T06:18:39.693Z,14.65
2017-10-10T06:21:50.422Z,12.20
2017-10-10T06:25:00.408Z,15.50
2017-10-10T06:28:10.789Z,15.65
2017-10-10T06:31:21.196Z,14.87
2017-10-10T06:34:32.164Z,14.13
2017-10-10T06:37:42.669Z,16.48
2017-10-10T06:40:53.151Z,13.20
2017-10-10T06:44:03.490Z,17.75
2017-10-10T06:47:14.532Z,14.48
2017-10-10T06:50:24.528Z,14.80
2017-10-10T06:53:34.761Z,11.35
2017-10-10T06:56:49.587Z,17.95
2017-10-10T07:00:00.463Z,17.23
2017-10-10T07:03:11.966Z,17.95
2017-10-10T07:06:22.639Z,19.83
2017-10-10T07:09:33.484Z,19.02
2017-10-10T07:12:43.679Z,16.52
2017-10-10T07:15:54.781Z,18.60
2017-10-10T07:19:05.690Z,15.90
2017-10-10T07:22:15.766Z,17.75
2017-10-10T07:25:25.691Z,19.33
2017-10-10T07:28:35.754Z,18.52
2017-10-10T07:31:46.918Z,11.68
2017-10-10T07:34:56.911Z,19.40
2017-10-10T07:38:07.006Z,16.60
2017-10-10T07:41:17.206Z,16.40
2017-10-10T07:44:27.363Z,17.05
2017-10-10T07:47:45.514Z,14.85
2017-10-10T07:50:56.414Z,17.23
2017-10-10T07:54:07.020Z,23.05
2017-10-10T07:57:22.209Z,20.62
2017-10-10T08:00:35.132Z,11.25
2017-10-10T08:03:47.834Z,15.85
2017-10-10T08:07:00.091Z,14.57
2017-10-10T08:10:12.134Z,17.83
2017-10-10T08:13:24.142Z,17.77
2017-10-10T08:16:35.113Z,15.23
2017-10-10T08:19:46.581Z,17.83
2017-10-10T08:22:59.453Z,14.98
2017-10-10T08:26:11.196Z,17.05
2017-10-10T08:29:21.238Z,20.45
2017-10-10T08:32:33.238Z,17.87
2017-10-10T08:35:43.987Z,16.58
2017-10-10T08:38:54.393Z,18.12
2017-10-10T08:42:05.822Z,16.10
2017-10-10T08:45:16.476Z,17.83
2017-10-10T08:48:28.601Z,12.88
2017-10-10T08:51:40.376Z,15.60
2017-10-10T08:54:54.798Z,18.12
2017-10-10T08:58:05.914Z,19.15
2017-10-10T09:01:19.618Z,16.15
2017-10-10T09:04:31.125Z,15.30
2017-10-10T09:07:41.649Z,13.00
2017-10-10T09:10:52.489Z,16.45
2017-10-10T09:14:08.930Z,14.38
2017-10-10T09:17:20.528Z,12.23
2017-10-10T09:20:35.545Z,14.73
2017-10-10T09:23:48.202Z,14.35
2017-10-10T09:26:58.753Z,16.98
2017-10-10T09:30:12.852Z,10.45
2017-10-10T09:33:23.046Z,13.02
2017-10-10T09:36:35.556Z,16.55
2017-10-10T09:39:47.499Z,13.07
2017-10-10T09:42:59.723Z,13.82
2017-10-10T09:46:15.400Z,12.57
2017-10-10T09:49:27.778Z,9.38
2017-10-10T09:52:38.360Z,15.80
2017-10-10T09:55:48.299Z,11.55
2017-10-10T09:59:03.252Z,9.50
2017-10-10T10:02:13.475Z,12.20
2017-10-10T10:05:25.042Z,12.70
2017-10-10T10:08:38.705Z,13.45
2017-10-10T10:11:50.840Z,17.12
2017-10-10T10:15:05.760Z,12.77
2017-10-10T10:18:17.183Z,13.57
2017-10-10T10:21:29.856Z,11.25
2017-10-10T10:24:41.081Z,14.38
2017-10-10T10:27:52.958Z,14.57
2017-10-10T10:31:10.769Z,16.17
2017-10-10T10:34:21.891Z,13.62
2017-10-10T10:37:39.433Z,14.93
2017-10-10T10:40:52.817Z,18.77
2017-10-10T10:44:04.679Z,12.25
2017-10-10T10:47:15.778Z,16.15
2017-10-10T10:50:28.645Z,14.52
2017-10-10T10:53:41.153Z,15.90
2017-10-10T10:56:54.389Z,18.27
2017-10-10T11:00:09.447Z,12.05
2017-10-10T11:03:19.855Z,15.35
2017-10-10T11:06:31.962Z,10.18
2017-10-10T11:09:43.032Z,15.52
2017-10-10T11:12:55.758Z,17.67
2017-10-10T11:16:15.193Z,16.65
2017-10-10T11:19:28.115Z,14.98
2017-10-10T11:22:46.416Z,16.65
2017-10-10T11:25:56.458Z,11.15
2017-10-10T11:29:09.001Z,15.77
2017-10-10T11:32:24.018Z,14.90
2017-10-10T11:35:34.614Z,15.90
2017-10-10T11:38:45.216Z,13.73
2017-10-10T11:41:56.268Z,17.17
2017-10-10T11:45:15.076Z,15.35
2017-10-10T11:48:25.767Z,13.20
2017-10-10T11:51:44.747Z,13.52
2017-10-10T11:54:58.040Z,15.93
2017-10-10T11:58:10.472Z,16.37
2017-10-10T12:01:23.415Z,15.00
2017-10-10T12:04:36.126Z,16.35
2017-10-10T12:07:47.111Z,13.45
2017-10-10T12:10:58.206Z,15.55
2017-10-10T12:14:11.973Z,33.15
2017-10-10T12:17:23.488Z,38.05
2017-10-10T12:20:34.316Z,24.80
2017-10-10T12:23:45.651Z,20.37
2017-10-10T12:26:57.283Z,15.40
2017-10-10T12:30:09.749Z,13.15
2017-10-10T12:33:22.889Z,9.60
2017-10-10T12:36:33.892Z,11.88
2017-10-10T12:39:44.556Z,8.63
2017-10-10T12:42:55.519Z,8.13
2017-10-10T12:46:06.311Z,8.73
2017-10-10T12:49:16.356Z,7.78
2017-10-10T12:52:27.099Z,7.03
2017-10-10T12:55:37.778Z,8.60
2017-10-10T12:58:48.338Z,9.77
2017-10-10T13:02:00.568Z,6.82
2017-10-10T13:05:10.921Z,8.57
2017-10-10T13:08:21.691Z,8.43
2017-10-10T13:11:32.990Z,9.15
2017-10-10T13:14:43.932Z,7.40
2017-10-10T13:17:55.999Z,9.48
2017-10-10T13:21:13.704Z,9.23
2017-10-10T13:24:25.084Z,8.35
2017-10-10T13:27:35.699Z,6.60
2017-10-10T13:30:47.282Z,8.10
2017-10-10T13:33:59.813Z,7.87
2017-10-10T13:37:10.659Z,9.00
2017-10-10T13:40:20.959Z,7.40
2017-10-10T13:43:31.776Z,6.35
2017-10-10T13:46:43.786Z,7.20
2017-10-10T13:49:55.445Z,7.57
2017-10-10T13:53:10.555Z,5.40
2017-10-10T13:56:21.663Z,7.43
2017-10-10T13:59:33.462Z,8.45
2017-10-10T14:02:44.921Z,7.70
2017-10-10T14:05:56.360Z,8.20
2017-10-10T14:09:07.096Z,8.23
2017-10-10T14:12:18.943Z,8.05
2017-10-10T14:15:30.188Z,7.25
2017-10-10T14:18:41.743Z,7.32
2017-10-10T14:21:52.614Z,5.22
2017-10-10T14:25:07.769Z,9.07
2017-10-10T14:28:26.690Z,8.88
2017-10-10T14:31:38.259Z,7.60
2017-10-10T14:34:50.861Z,8.07
2017-10-10T14:38:02.603Z,8.50
2017-10-10T14:41:14.063Z,9.30
2017-10-10T14:44:25.205Z,10.27
2017-10-10T14:47:37.008Z,7.43
2017-10-10T14:50:48.430Z,6.80
2017-10-10T14:53:59.942Z,9.02
2017-10-10T14:57:10.097Z,8.60
2017-10-10T15:00:27.578Z,6.97
2017-10-10T15:03:40.739Z,7.95
2017-10-10T15:06:51.989Z,5.70
2017-10-10T15:10:03.672Z,8.20
2017-10-10T15:13:17.610Z,8.55
2017-10-10T15:16:28.417Z,7.90
2017-10-10T15:19:40.948Z,7.50
2017-10-10T15:22:51.939Z,7.57
2017-10-10T15:26:02.660Z,8.75
2017-10-10T15:29:14.182Z,8.43
2017-10-10T15:32:24.372Z,8.25
2017-10-10T15:35:34.183Z,7.97
2017-10-10T15:38:44.144Z,8.40
2017-10-10T15:42:08.439Z,9.65
2017-10-10T15:45:19.770Z,7.47
2017-10-10T15:48:30.430Z,7.20
2017-10-10T15:51:41.336Z,9.38
2017-10-10T15:54:52.836Z,7.22
2017-10-10T15:58:03.098Z,7.72
2017-10-10T16:01:13.437Z,8.38
2017-10-10T16:04:24.375Z,6.75
2017-10-10T16:07:35.785Z,6.72
2017-10-10T16:10:45.991Z,7.18
2017-10-10T16:13:56.773Z,5.95
2017-10-10T16:17:06.763Z,7.85
2017-10-10T16:20:16.634Z,8.32
2017-10-10T16:23:26.763Z,6.72
2017-10-10T16:26:36.905Z,6.85
2017-10-10T16:29:47.654Z,7.78
2017-10-10T16:32:57.847Z,7.53
2017-10-10T16:36:09.247Z,5.93
2017-10-10T16:39:19.784Z,6.50
2017-10-10T16:42:30.568Z,6.70
2017-10-10T16:45:41.358Z,6.55
2017-10-10T16:48:51.951Z,9.93
2017-10-10T16:52:03.440Z,6.40
2017-10-10T16:55:14.480Z,8.43
2017-10-10T16:58:25.623Z,8.25
2017-10-10T17:01:35.604Z,6.68
2017-10-10T17:04:46.386Z,7.50
2017-10-10T17:07:57.123Z,7.55
2017-10-10T17:11:07.363Z,8.35
2017-10-10T17:14:17.941Z,8.20
2017-10-10T17:17:28.022Z,7.18
2017-10-10T17:20:39.503Z,8.27
2017-10-10T17:23:49.695Z,8.40
2017-10-10T17:26:59.909Z,6.40
2017-10-10T17:30:10.506Z,7.00
2017-10-10T17:33:20.571Z,6.85
2017-10-10T17:36:31.975Z,6.97
2017-10-10T17:39:41.897Z,8.80
2017-10-10T17:42:52.582Z,7.90
2017-10-10T17:46:04.204Z,7.07
2017-10-10T17:49:15.369Z,7.95
2017-10-10T17:52:26.255Z,6.97
2017-10-10T17:55:36.018Z,9.52
2017-10-10T17:58:46.139Z,8.07
2017-10-10T18:01:56.002Z,9.25
2017-10-10T18:05:06.925Z,7.55
2017-10-10T18:08:17.557Z,9.13
2017-10-10T18:11:28.366Z,7.68
2017-10-10T18:14:38.394Z,7.55
2017-10-10T18:17:49.927Z,8.80
2017-10-10T18:20:59.937Z,15.02
2017-10-10T18:24:11.462Z,14.77
2017-10-10T18:27:22.180Z,7.60
2017-10-10T18:33:56.024Z,14.55
2017-10-10T18:37:06.293Z,10.02
2017-10-10T18:40:16.523Z,12.20
2017-10-10T18:43:27.347Z,12.45
2017-10-10T18:46:41.514Z,13.20
2017-10-10T18:49:53.389Z,12.93
2017-10-10T18:53:03.790Z,7.28
2017-10-10T18:56:14.404Z,7.70
2017-10-10T18:59:24.751Z,9.85
2017-10-10T19:02:36.274Z,10.95
2017-10-10T19:05:47.480Z,11.95
2017-10-10T19:08:58.810Z,8.40
2017-10-10T19:12:10.171Z,9.55
2017-10-10T19:15:23.542Z,6.87
2017-10-10T19:18:37.743Z,8.32
2017-10-10T19:21:48.428Z,8.98
2017-10-10T19:24:58.662Z,8.45
2017-10-10T19:28:09.262Z,9.20
2017-10-10T19:31:23.526Z,11.00
2017-10-10T19:34:35.060Z,7.40
2017-10-10T19:37:44.931Z,7.70
2017-10-10T19:41:03.933Z,8.13
2017-10-10T19:44:16.503Z,9.02
2017-10-10T19:47:30.841Z,9.07
2017-10-10T19:50:50.149Z,9.15
2017-10-10T19:54:06.817Z,7.65
2017-10-10T19:57:18.726Z,8.70
2017-10-10T20:00:38.686Z,9.90
2017-10-10T20:03:54.483Z,9.27
2017-10-10T20:07:05.037Z,9.43
2017-10-10T20:10:14.925Z,9.68
2017-10-10T20:13:25.605Z,10.50
2017-10-10T20:16:36.339Z,8.18
2017-10-10T20:19:46.214Z,9.90
2017-10-10T20:22:56.084Z,10.02
2017-10-10T20:26:05.906Z,10.80
2017-10-10T20:29:16.485Z,8.90
2017-10-10T20:32:26.946Z,10.18
2017-10-10T20:35:36.981Z,8.70
2017-10-10T20:38:46.970Z,9.48
2017-10-10T20:41:58.386Z,8.93
2017-10-10T20:45:08.295Z,10.55
2017-10-10T20:48:18.283Z,9.00
2017-10-10T20:51:28.966Z,9.13
2017-10-10T20:54:40.084Z,9.60
2017-10-10T20:57:50.774Z,11.52
2017-10-10T21:01:01.505Z,10.93
2017-10-10T21:04:12.186Z,8.05
2017-10-10T21:07:23.897Z,10.32
2017-10-10T21:10:34.458Z,9.95
2017-10-10T21:13:44.592Z,10.00
2017-10-10T21:16:55.189Z,13.13
2017-10-10T21:20:06.122Z,11.45
2017-10-10T21:23:16.214Z,11.70
2017-10-10T21:26:27.644Z,12.07
2017-10-10T21:29:38.928Z,10.02
2017-10-10T21:32:49.332Z,14.15
2017-10-10T21:35:59.444Z,11.98
2017-10-10T21:39:10.437Z,11.35
2017-10-10T21:42:22.383Z,13.75
2017-10-10T21:45:32.328Z,9.65
2017-10-10T21:48:43.403Z,12.70
2017-10-10T21:51:53.510Z,11.15
2017-10-10T21:55:04.125Z,12.37
2017-10-10T21:58:14.572Z,11.25
2017-10-10T22:01:24.790Z,14.52
2017-10-10T22:04:34.565Z,13.00
2017-10-10T22:07:49.953Z,16.23
2017-10-10T22:11:06.309Z,8.93
2017-10-10T22:14:16.875Z,10.75
2017-10-10T22:17:27.762Z,11.95
2017-10-10T22:20:37.817Z,10.27
2017-10-10T22:23:47.753Z,10.63
2017-10-10T22:26:58.633Z,9.48
2017-10-10T22:30:08.893Z,9.57
2017-10-10T22:33:18.865Z,10.48
2017-10-10T22:36:28.834Z,14.10
2017-10-10T22:39:39.640Z,9.75
2017-10-10T22:42:50.464Z,13.88
2017-10-10T22:46:00.431Z,10.63
2017-10-10T22:49:10.705Z,10.32
2017-10-10T22:52:20.801Z,8.43
2017-10-10T22:55:30.670Z,8.88
2017-10-10T22:58:41.903Z,7.87
2017-10-10T23:01:51.906Z,8.15
2017-10-10T23:05:02.825Z,9.25
2017-10-10T23:08:13.412Z,8.63
2017-10-10T23:11:24.134Z,9.15
2017-10-10T23:14:35.190Z,8.73
2017-10-10T23:17:46.151Z,8.15
2017-10-10T23:20:56.539Z,9.57
2017-10-10T23:24:07.749Z,9.77
2017-10-10T23:27:17.786Z,7.85
2017-10-10T23:30:28.374Z,7.00
2017-10-10T23:33:38.245Z,6.50
2017-10-10T23:36:48.249Z,7.28
2017-10-10T23:39:59.231Z,8.00
2017-10-10T23:43:10.029Z,6.40
2017-10-10T23:46:21.479Z,7.70
2017-10-10T23:49:33.021Z,8.07
2017-10-10T23:52:43.203Z,8.18
2017-10-10T23:55:54.020Z,7.50
2017-10-10T23:59:04.190Z,6.50
